Time;durP1;ratioP1;P1;durP2;ratioP2;P2;SDS_P1;SDS_P2;PMS_P1;PMS_P2;Temp;Humidity;BMP_temperature;BMP_pressure;BME280_temperature;BME280_humidity;BME280_pressure;Samples;Min_cycle;Max_cycle;Signal;HPM_P1;HPM_P2
2022/08/11 00:00:17;;;;;;;11.82;7.47;;;;;;;;;;5034174;28;20496;-74
2022/08/11 00:02:46;;;;;;;10.55;7.38;;;;;;;;;;5050552;28;20041;-75
2022/08/11 00:05:13;;;;;;;8.82;6.97;;;;;;;;;;5033712;28;20041;-75
2022/08/11 00:07:58;;;;;;;9.45;7.03;;;;;;;;;;5050861;28;20436;-75
2022/08/11 00:10:26;;;;;;;11.07;7.40;;;;;;;;;;5050468;28;20045;-75
2022/08/11 00:12:56;;;;;;;12.00;8.13;;;;;;;;;;5033588;28;20040;-75
2022/08/11 00:15:24;;;;;;;12.45;8.02;;;;;;;;;;5050123;28;20037;-75
2022/08/11 00:17:55;;;;;;;12.48;8.45;;;;;;;;;;5050436;28;20099;-75
2022/08/11 00:20:23;;;;;;;9.35;8.25;;;;;;;;;;5050302;28;20045;-75
2022/08/11 00:22:49;;;;;;;9.80;7.68;;;;;;;;;;5050088;28;20059;-75
2022/08/11 00:25:17;;;;;;;10.98;7.80;;;;;;;;;;5051078;28;20040;-75
2022/08/11 00:27:44;;;;;;;10.52;7.55;;;;;;;;;;5050380;28;20048;-75
2022/08/11 00:30:11;;;;;;;10.98;8.20;;;;;;;;;;5050390;28;20443;-75
2022/08/11 00:32:38;;;;;;;13.45;8.68;;;;;;;;;;5050131;28;20120;-74
2022/08/11 00:35:06;;;;;;;10.50;7.65;;;;;;;;;;5067406;28;20576;-74
2022/08/11 00:37:32;;;;;;;10.73;7.60;;;;;;;;;;5049889;28;20048;-75
2022/08/11 00:39:58;;;;;;;10.80;7.68;;;;;;;;;;5050240;28;20052;-74
2022/08/11 00:42:47;;;;;;;9.48;7.88;;;;;;;;;;5050271;28;20045;-75
2022/08/11 00:45:22;;;;;;;7.88;6.47;;;;;;;;;;5038575;28;20524;-74
2022/08/11 00:47:54;;;;;;;10.02;8.15;;;;;;;;;;5050349;28;20501;-74
2022/08/11 00:50:20;;;;;;;10.07;6.38;;;;;;;;;;5033304;28;20041;-74
2022/08/11 00:53:11;;;;;;;10.48;7.57;;;;;;;;;;5050438;28;20393;-75
2022/08/11 00:55:36;;;;;;;9.18;7.13;;;;;;;;;;5050116;28;20048;-74
2022/08/11 00:58:09;;;;;;;11.95;7.03;;;;;;;;;;5049999;28;20047;-74
2022/08/11 01:00:53;;;;;;;11.10;6.53;;;;;;;;;;5050279;28;20040;-75
2022/08/11 01:03:32;;;;;;;8.82;7.03;;;;;;;;;;5037651;28;20120;-74
2022/08/11 01:06:01;;;;;;;12.45;8.52;;;;;;;;;;5033555;28;20081;-74
2022/08/11 01:08:40;;;;;;;10.38;7.03;;;;;;;;;;5051023;28;20037;-74
2022/08/11 01:11:12;;;;;;;12.75;8.50;;;;;;;;;;5053722;28;20480;-75
2022/08/11 01:13:54;;;;;;;11.65;8.27;;;;;;;;;;5053266;28;20037;-75
2022/08/11 01:16:20;;;;;;;13.40;8.20;;;;;;;;;;5052244;28;20047;-75
2022/08/11 01:18:57;;;;;;;11.27;8.50;;;;;;;;;;5054003;28;20492;-75
2022/08/11 01:21:32;;;;;;;14.25;8.40;;;;;;;;;;5053530;28;20401;-75
2022/08/11 01:23:58;;;;;;;12.23;7.57;;;;;;;;;;5036763;28;20080;-74
2022/08/11 01:26:43;;;;;;;13.98;8.10;;;;;;;;;;5052720;28;20045;-75
2022/08/11 01:29:15;;;;;;;12.50;8.88;;;;;;;;;;5051373;28;20040;-75
2022/08/11 01:31:54;;;;;;;12.00;8.43;;;;;;;;;;5053624;28;20041;-74
2022/08/11 01:34:20;;;;;;;11.07;8.52;;;;;;;;;;5053008;28;20123;-75
2022/08/11 01:37:05;;;;;;;12.98;9.05;;;;;;;;;;5052965;28;20072;-75
2022/08/11 01:39:31;;;;;;;12.00;8.68;;;;;;;;;;5041010;28;20037;-75
2022/08/11 01:44:44;;;;;;;12.02;8.40;;;;;;;;;;5041985;28;20060;-75
2022/08/11 01:50:16;;;;;;;12.63;8.15;;;;;;;;;;5052629;28;20103;-75
2022/08/11 01:52:54;;;;;;;12.18;8.80;;;;;;;;;;5052661;28;20037;-75
2022/08/11 01:55:39;;;;;;;12.38;8.85;;;;;;;;;;5052392;28;20047;-75
2022/08/11 01:58:24;;;;;;;12.57;8.90;;;;;;;;;;5049873;28;20049;-75
2022/08/11 02:00:57;;;;;;;12.45;8.57;;;;;;;;;;5051289;28;20056;-74
2022/08/11 02:03:36;;;;;;;12.50;9.15;;;;;;;;;;5060031;28;20041;-75
2022/08/11 02:09:14;;;;;;;13.27;9.05;;;;;;;;;;5038706;28;20052;-75
2022/08/11 02:11:43;;;;;;;12.88;9.32;;;;;;;;;;5047822;28;20119;-75
2022/08/11 02:14:24;;;;;;;10.00;7.70;;;;;;;;;;5052908;28;20076;-75
2022/08/11 02:17:02;;;;;;;12.52;9.23;;;;;;;;;;5052792;28;20482;-75
2022/08/11 02:25:31;;;;;;;15.00;10.15;;;;;;;;;;5052349;28;20075;-75
2022/08/11 02:28:10;;;;;;;13.05;9.60;;;;;;;;;;5051632;28;20075;-75
2022/08/11 02:33:21;;;;;;;13.27;9.93;;;;;;;;;;5034844;28;20044;-75
2022/08/11 02:33:35;;;;;;;12.68;9.18;;;;;;;;;;5041285;28;20128;-75
2022/08/11 02:36:08;;;;;;;13.48;9.80;;;;;;;;;;5051906;28;20052;-75
2022/08/11 02:38:34;;;;;;;12.43;9.60;;;;;;;;;;5051830;28;20063;-75
2022/08/11 02:43:57;;;;;;;;;;;;;;;;;;5052379;28;20056;-75
2022/08/11 02:46:27;;;;;;;10.15;8.88;;;;;;;;;;5051704;28;19928;-75
2022/08/11 02:51:42;;;;;;;15.15;9.90;;;;;;;;;;5049726;28;20052;-74
2022/08/11 02:54:14;;;;;;;13.93;8.70;;;;;;;;;;5051442;28;20056;-75
2022/08/11 02:56:54;;;;;;;13.93;10.20;;;;;;;;;;5051255;28;20049;-75
2022/08/11 02:59:51;;;;;;;10.45;8.02;;;;;;;;;;5035278;28;20045;-75
2022/08/11 03:02:18;;;;;;;12.68;9.50;;;;;;;;;;5028676;28;20047;-75
2022/08/11 03:04:48;;;;;;;13.73;9.85;;;;;;;;;;5051160;28;20037;-75
2022/08/11 03:07:23;;;;;;;12.55;8.82;;;;;;;;;;5051908;28;20406;-75
2022/08/11 03:09:55;;;;;;;13.05;9.07;;;;;;;;;;5034374;28;20037;-75
2022/08/11 03:18:06;;;;;;;15.32;9.82;;;;;;;;;;5042976;28;20151;-74
2022/08/11 03:20:32;;;;;;;15.45;10.75;;;;;;;;;;5050952;28;20041;-74
2022/08/11 03:23:14;;;;;;;15.55;9.40;;;;;;;;;;5050890;28;20118;-75
2022/08/11 03:25:50;;;;;;;14.15;9.93;;;;;;;;;;5034083;28;20033;-75
2022/08/11 03:28:16;;;;;;;13.70;9.70;;;;;;;;;;5050772;28;20060;-75
2022/08/11 03:30:56;;;;;;;12.38;9.43;;;;;;;;;;5050003;28;20041;-75
2022/08/11 03:36:18;;;;;;;13.05;8.95;;;;;;;;;;5051064;28;20513;-75
2022/08/11 03:38:56;;;;;;;11.65;9.25;;;;;;;;;;5050323;28;20095;-75
2022/08/11 03:41:44;;;;;;;16.30;10.52;;;;;;;;;;5053958;28;20180;-75
2022/08/11 03:44:25;;;;;;;16.92;10.43;;;;;;;;;;5033670;28;20052;-75
2022/08/11 03:47:06;;;;;;;12.88;8.73;;;;;;;;;;5050763;28;20379;-75
2022/08/11 03:49:51;;;;;;;15.20;9.60;;;;;;;;;;5050496;28;20120;-75
2022/08/11 03:52:32;;;;;;;17.00;10.43;;;;;;;;;;5050934;28;20507;-75
2022/08/11 03:54:58;;;;;;;9.95;8.00;;;;;;;;;;5033937;28;20489;-75
2022/08/11 03:57:43;;;;;;;14.82;10.45;;;;;;;;;;5050792;28;20044;-75
2022/08/11 04:00:23;;;;;;;14.90;10.45;;;;;;;;;;5050035;28;20041;-75
2022/08/11 04:03:06;;;;;;;15.80;10.68;;;;;;;;;;5045710;28;20055;-74
2022/08/11 04:05:35;;;;;;;13.57;10.25;;;;;;;;;;5040662;28;20100;-74
2022/08/11 04:08:27;;;;;;;15.10;10.65;;;;;;;;;;5037700;28;20047;-75
2022/08/11 04:11:14;;;;;;;14.88;10.07;;;;;;;;;;5034932;28;20041;-75
2022/08/11 04:13:43;;;;;;;14.68;10.52;;;;;;;;;;5017635;28;20034;-75
2022/08/11 04:16:16;;;;;;;13.88;10.43;;;;;;;;;;5037829;28;20383;-74
2022/08/11 04:18:42;;;;;;;15.07;11.00;;;;;;;;;;5036096;28;20085;-74
2022/08/11 04:21:26;;;;;;;14.85;9.57;;;;;;;;;;5050396;28;20055;-75
2022/08/11 04:24:11;;;;;;;15.15;10.80;;;;;;;;;;5033592;28;20041;-74
2022/08/11 04:26:56;;;;;;;15.03;9.93;;;;;;;;;;5050484;28;20098;-75
2022/08/11 04:29:28;;;;;;;14.93;9.85;;;;;;;;;;5050170;28;20037;-74
2022/08/11 04:31:57;;;;;;;12.88;10.43;;;;;;;;;;5049711;28;20041;-74
2022/08/11 04:34:23;;;;;;;11.98;9.50;;;;;;;;;;5050213;28;20088;-74
2022/08/11 04:39:49;;;;;;;11.63;8.90;;;;;;;;;;5039865;28;20170;-74
2022/08/11 04:45:34;;;;;;;12.32;9.07;;;;;;;;;;5061284;28;20049;-74
2022/08/11 05:03:15;;;;;;;12.07;6.70;;;;;;;;;;5053459;28;20044;-74
2022/08/11 05:06:00;;;;;;;7.75;6.40;;;;;;;;;;5054110;28;20486;-75
2022/08/11 05:09:01;;;;;;;8.73;6.78;;;;;;;;;;5053938;28;20534;-75
2022/08/11 05:11:46;;;;;;;10.07;6.40;;;;;;;;;;5016642;28;20406;-74
2022/08/11 05:37:01;;;;;;;6.80;5.40;;;;;;;;;;5052342;28;20080;-75
2022/08/11 05:56:18;;;;;;;11.35;5.50;;;;;;;;;;5051816;28;20083;-76
2022/08/11 05:58:46;;;;;;;7.47;5.38;;;;;;;;;;5052875;28;20036;-76
2022/08/11 06:01:13;;;;;;;6.28;4.90;;;;;;;;;;5051771;28;20044;-76
2022/08/11 06:06:28;;;;;;;7.38;5.63;;;;;;;;;;5048359;28;20047;-76
2022/08/11 06:08:55;;;;;;;8.93;5.05;;;;;;;;;;5052708;28;20486;-76
2022/08/11 06:11:22;;;;;;;9.40;5.32;;;;;;;;;;5037495;28;20044;-76
2022/08/11 06:13:48;;;;;;;6.10;4.53;;;;;;;;;;5037443;28;20045;-76
2022/08/11 06:16:14;;;;;;;9.57;5.35;;;;;;;;;;5041652;28;20121;-76
2022/08/11 06:18:47;;;;;;;6.90;5.40;;;;;;;;;;5057006;28;20060;-76
2022/08/11 06:21:14;;;;;;;8.55;4.90;;;;;;;;;;5052339;28;20557;-77
2022/08/11 06:23:41;;;;;;;5.82;4.65;;;;;;;;;;5052282;28;20041;-76
2022/08/11 06:26:09;;;;;;;6.60;5.07;;;;;;;;;;5051899;28;20521;-76
2022/08/11 06:28:36;;;;;;;7.10;5.05;;;;;;;;;;5051871;28;20608;-76
2022/08/11 06:31:23;;;;;;;6.07;4.70;;;;;;;;;;5051016;28;20041;-77
2022/08/11 06:33:58;;;;;;;6.93;4.60;;;;;;;;;;5049129;28;20390;-77
2022/08/11 06:36:27;;;;;;;7.88;3.88;;;;;;;;;;5040315;28;20489;-76
2022/08/11 06:38:56;;;;;;;8.40;4.50;;;;;;;;;;5046997;28;20045;-76
2022/08/11 06:41:29;;;;;;;6.65;4.22;;;;;;;;;;5032515;28;20466;-76
2022/08/11 06:44:04;;;;;;;6.07;4.28;;;;;;;;;;5041954;28;20045;-76
2022/08/11 06:46:32;;;;;;;5.88;3.67;;;;;;;;;;5044490;28;20129;-76
2022/08/11 06:49:01;;;;;;;6.85;3.67;;;;;;;;;;5045636;28;20044;-76
2022/08/11 06:51:28;;;;;;;7.35;3.70;;;;;;;;;;5045185;28;20040;-77
2022/08/11 06:53:59;;;;;;;5.65;3.65;;;;;;;;;;5045382;28;20049;-77
2022/08/11 07:01:57;;;;;;;;;;;;;;;;;;5058775;28;20445;-76
2022/08/11 07:04:28;;;;;;;5.45;2.60;;;;;;;;;;5045148;28;19920;-76
2022/08/11 07:16:08;;;;;;;3.83;2.70;;;;;;;;;;5045254;28;20041;-77
2022/08/11 07:30:08;;;;;;;5.57;2.15;;;;;;;;;;5031004;28;20036;-77
2022/08/11 07:32:52;;;;;;;4.32;2.30;;;;;;;;;;5050236;28;20035;-77
2022/08/11 07:35:29;;;;;;;5.38;2.35;;;;;;;;;;5050714;28;20044;-77
2022/08/11 07:37:57;;;;;;;8.15;2.20;;;;;;;;;;5051483;28;20041;-79
2022/08/11 07:40:24;;;;;;;3.03;2.10;;;;;;;;;;5050624;28;20049;-79
2022/08/11 07:42:51;;;;;;;4.65;2.00;;;;;;;;;;5050280;28;20040;-79
2022/08/11 07:53:33;;;;;;;3.88;1.90;;;;;;;;;;5050245;28;20052;-79
2022/08/11 07:56:00;;;;;;;2.63;1.50;;;;;;;;;;5034296;28;20120;-79
2022/08/11 08:17:52;;;;;;;3.22;1.50;;;;;;;;;;5052780;28;20049;-79
2022/08/11 08:20:20;;;;;;;3.63;1.30;;;;;;;;;;5036765;28;20060;-79
2022/08/11 08:22:51;;;;;;;3.35;1.60;;;;;;;;;;5038458;28;20099;-79
2022/08/11 08:25:18;;;;;;;2.75;1.40;;;;;;;;;;5037049;28;20044;-79
2022/08/11 08:27:44;;;;;;;2.90;1.40;;;;;;;;;;5050347;28;20037;-79
2022/08/11 08:32:58;;;;;;;5.10;1.25;;;;;;;;;;5067619;28;20129;-79
2022/08/11 08:35:24;;;;;;;4.50;1.30;;;;;;;;;;5049726;28;20154;-80
2022/08/11 08:37:51;;;;;;;3.05;1.30;;;;;;;;;;5048507;28;20033;-79
2022/08/11 08:40:17;;;;;;;4.90;1.25;;;;;;;;;;5051490;28;20535;-80
2022/08/11 08:42:53;;;;;;;4.82;1.30;;;;;;;;;;5047022;28;20421;-79
2022/08/11 08:45:20;;;;;;;2.22;1.10;;;;;;;;;;5049366;28;20060;-79
2022/08/11 08:48:01;;;;;;;5.78;1.35;;;;;;;;;;5054126;28;20045;-79
2022/08/11 08:51:33;;;;;;;4.85;1.10;;;;;;;;;;5050619;28;20413;-79
2022/08/11 08:53:20;;;;;;;4.57;1.23;;;;;;;;;;5049391;28;20621;-79
2022/08/11 08:55:46;;;;;;;4.45;1.40;;;;;;;;;;5048913;28;20041;-79
2022/08/11 08:58:13;;;;;;;6.60;1.20;;;;;;;;;;5047813;28;20119;-79
2022/08/11 09:00:41;;;;;;;5.20;1.40;;;;;;;;;;5049699;28;20129;-79
2022/08/11 09:03:07;;;;;;;2.72;1.10;;;;;;;;;;5053346;28;20049;-79
2022/08/11 09:05:34;;;;;;;3.72;1.20;;;;;;;;;;5048551;28;20041;-79
2022/08/11 09:08:00;;;;;;;6.03;1.38;;;;;;;;;;5032089;28;20038;-79
2022/08/11 09:10:29;;;;;;;8.27;1.35;;;;;;;;;;5048909;28;20047;-79
2022/08/11 09:12:56;;;;;;;4.57;1.20;;;;;;;;;;5063267;28;20044;-80
2022/08/11 09:15:23;;;;;;;5.32;1.20;;;;;;;;;;5047828;28;20041;-79
2022/08/11 09:18:02;;;;;;;2.05;1.20;;;;;;;;;;5051368;28;20041;-79
2022/08/11 09:20:33;;;;;;;3.67;1.50;;;;;;;;;;5051810;28;20179;-79
2022/08/11 09:28:30;;;;;;;;;;;;;;;;;;5052318;28;20041;-79
2022/08/11 09:30:59;;;;;;;4.50;1.42;;;;;;;;;;5036425;28;20373;-78
2022/08/11 09:33:27;;;;;;;2.40;1.10;;;;;;;;;;5036460;28;20073;-79
2022/08/11 09:35:53;;;;;;;3.67;1.60;;;;;;;;;;5053268;28;20406;-79
2022/08/11 09:41:08;;;;;;;4.35;1.80;;;;;;;;;;5052890;28;20079;-79
2022/08/11 09:46:29;;;;;;;5.75;2.40;;;;;;;;;;5052206;28;20044;-79
2022/08/11 09:48:57;;;;;;;6.30;2.25;;;;;;;;;;5052509;28;20033;-79
2022/08/11 09:51:24;;;;;;;3.75;2.15;;;;;;;;;;5052529;28;20120;-79
2022/08/11 09:53:50;;;;;;;5.40;2.50;;;;;;;;;;5041219;28;20041;-79
2022/08/11 09:59:04;;;;;;;4.90;2.92;;;;;;;;;;5051307;28;20045;-79
2022/08/11 10:01:32;;;;;;;7.15;2.55;;;;;;;;;;5032973;28;20045;-79
2022/08/11 10:04:00;;;;;;;5.13;2.20;;;;;;;;;;5041964;28;20048;-78
2022/08/11 10:09:16;;;;;;;6.28;2.20;;;;;;;;;;5053406;28;20098;-79
2022/08/11 10:11:43;;;;;;;5.00;2.40;;;;;;;;;;5050195;28;20090;-78
2022/08/11 10:16:54;;;;;;;3.80;2.17;;;;;;;;;;5043369;28;20049;-78
2022/08/11 10:19:21;;;;;;;3.03;2.15;;;;;;;;;;5039552;28;20508;-78
2022/08/11 10:26:49;;;;;;;4.18;2.10;;;;;;;;;;5052014;28;20053;-78
2022/08/11 10:27:22;;;;;;;3.70;2.03;;;;;;;;;;5052116;28;20044;-78
2022/08/11 10:35:21;;;;;;;6.03;2.17;;;;;;;;;;5051997;28;20041;-77
2022/08/11 10:37:48;;;;;;;4.93;2.10;;;;;;;;;;5051325;28;20044;-78
2022/08/11 10:40:15;;;;;;;7.25;2.30;;;;;;;;;;5049623;28;20137;-77
2022/08/11 10:43:01;;;;;;;6.38;2.28;;;;;;;;;;5045764;28;20371;-78
2022/08/11 10:48:15;;;;;;;5.43;2.33;;;;;;;;;;5044171;28;20087;-78
2022/08/11 10:58:59;;;;;;;4.68;1.70;;;;;;;;;;5050322;28;19916;-78
2022/08/11 11:01:27;;;;;;;4.35;1.80;;;;;;;;;;5034753;28;20080;-77
2022/08/11 11:04:13;;;;;;;4.45;1.70;;;;;;;;;;5048356;28;20424;-78
2022/08/11 11:06:58;;;;;;;4.18;1.80;;;;;;;;;;5058217;28;20038;-77
2022/08/11 11:09:24;;;;;;;2.90;1.50;;;;;;;;;;5051666;28;20111;-77
2022/08/11 11:17:55;;;;;;;5.95;1.80;;;;;;;;;;5042325;28;20044;-77
2022/08/11 11:20:32;;;;;;;4.20;1.67;;;;;;;;;;5031664;28;20043;-78
2022/08/11 11:23:02;;;;;;;7.03;1.95;;;;;;;;;;5045127;28;20037;-78
2022/08/11 11:26:05;;;;;;;3.42;1.75;;;;;;;;;;5044622;28;20048;-78
2022/08/11 11:28:49;;;;;;;3.45;1.65;;;;;;;;;;5038921;28;20062;-77
2022/08/11 11:31:30;;;;;;;4.10;1.50;;;;;;;;;;5041754;28;20501;-78
2022/08/11 11:34:15;;;;;;;4.57;1.63;;;;;;;;;;5047017;28;20033;-77
2022/08/11 11:37:01;;;;;;;4.18;1.45;;;;;;;;;;5043607;28;20041;-78
2022/08/11 11:39:28;;;;;;;2.50;1.50;;;;;;;;;;5045929;28;20059;-77
2022/08/11 11:41:57;;;;;;;3.83;1.48;;;;;;;;;;5049771;28;20095;-78
2022/08/11 11:44:23;;;;;;;2.10;1.30;;;;;;;;;;5045346;28;20081;-78
2022/08/11 11:46:50;;;;;;;4.30;1.50;;;;;;;;;;5033760;28;20044;-76
2022/08/11 11:49:17;;;;;;;3.80;1.50;;;;;;;;;;5047165;28;20045;-76
2022/08/11 11:51:47;;;;;;;7.63;1.50;;;;;;;;;;5046543;28;20124;-76
2022/08/11 11:54:14;;;;;;;7.15;1.63;;;;;;;;;;5047640;28;20045;-76
2022/08/11 11:56:40;;;;;;;2.85;1.38;;;;;;;;;;5047587;28;20073;-76
2022/08/11 12:01:52;;;;;;;6.30;1.50;;;;;;;;;;5049890;28;20074;-75
2022/08/11 12:04:19;;;;;;;4.90;1.60;;;;;;;;;;5052713;28;20076;-77
2022/08/11 12:06:45;;;;;;;2.55;1.40;;;;;;;;;;5050350;28;20041;-77
2022/08/11 12:09:14;;;;;;;3.10;1.40;;;;;;;;;;5049739;28;20185;-77
2022/08/11 12:14:27;;;;;;;3.05;1.40;;;;;;;;;;5050906;28;20049;-77
2022/08/11 12:16:55;;;;;;;1.90;1.30;;;;;;;;;;5050376;28;20389;-77
2022/08/11 12:19:23;;;;;;;4.20;1.50;;;;;;;;;;5050983;28;20044;-77
2022/08/11 12:27:20;;;;;;;4.90;1.55;;;;;;;;;;5044797;28;20130;-77
2022/08/11 12:29:50;;;;;;;5.32;1.63;;;;;;;;;;5050684;28;20033;-77
2022/08/11 12:32:17;;;;;;;2.78;1.48;;;;;;;;;;5050653;28;20083;-77
2022/08/11 12:34:43;;;;;;;3.97;1.40;;;;;;;;;;5034325;28;20032;-77
2022/08/11 12:37:11;;;;;;;11.25;1.85;;;;;;;;;;5049840;28;20045;-77
2022/08/11 12:45:27;;;;;;;2.35;1.48;;;;;;;;;;5050146;28;20084;-77
2022/08/11 12:53:56;;;;;;;3.53;1.50;;;;;;;;;;4993078;28;20129;-77
2022/08/11 13:04:58;;;;;;;4.78;1.52;;;;;;;;;;5068681;28;19923;-77
2022/08/11 13:07:25;;;;;;;3.10;1.50;;;;;;;;;;5053304;28;20049;-78
2022/08/11 13:09:51;;;;;;;3.03;1.40;;;;;;;;;;5053381;28;20449;-77
2022/08/11 13:15:03;;;;;;;2.40;1.33;;;;;;;;;;5053303;28;20435;-77
2022/08/11 13:17:29;;;;;;;3.42;1.40;;;;;;;;;;5034308;28;20474;-79
2022/08/11 13:19:59;;;;;;;3.60;1.33;;;;;;;;;;5051709;28;20049;-77
2022/08/11 13:22:26;;;;;;;6.93;1.40;;;;;;;;;;5051632;28;20106;-77
2022/08/11 13:24:54;;;;;;;2.08;1.30;;;;;;;;;;5052209;28;20053;-77
2022/08/11 13:27:20;;;;;;;2.70;1.40;;;;;;;;;;5052690;28;20071;-77
2022/08/11 13:29:48;;;;;;;2.78;1.30;;;;;;;;;;5053285;28;20052;-77
2022/08/11 13:32:14;;;;;;;4.18;1.40;;;;;;;;;;5036310;28;20101;-76
2022/08/11 13:34:42;;;;;;;3.38;1.40;;;;;;;;;;5053788;28;20264;-77
2022/08/11 13:37:09;;;;;;;5.20;1.50;;;;;;;;;;5052579;28;20101;-77
2022/08/11 13:39:36;;;;;;;4.10;1.30;;;;;;;;;;5070175;28;20055;-76
2022/08/11 13:42:03;;;;;;;2.85;1.35;;;;;;;;;;5036389;28;20044;-77
2022/08/11 13:44:31;;;;;;;4.57;1.30;;;;;;;;;;5054230;28;20040;-77
2022/08/11 13:46:59;;;;;;;4.85;1.30;;;;;;;;;;5052953;28;20053;-76
2022/08/11 13:49:26;;;;;;;2.92;1.50;;;;;;;;;;5058373;28;20513;-77
2022/08/11 13:51:53;;;;;;;7.90;1.60;;;;;;;;;;5070095;28;20095;-77
2022/08/11 13:54:21;;;;;;;7.40;1.45;;;;;;;;;;5052721;28;20047;-77
2022/08/11 13:56:51;;;;;;;4.95;1.50;;;;;;;;;;5052591;28;20120;-78
2022/08/11 13:59:24;;;;;;;4.20;1.45;;;;;;;;;;5052457;28;20123;-78
2022/08/11 14:01:55;;;;;;;4.60;1.20;;;;;;;;;;5064918;28;20037;-77
2022/08/11 14:04:32;;;;;;;4.15;1.30;;;;;;;;;;5051977;28;20049;-77
2022/08/11 14:06:59;;;;;;;5.60;1.40;;;;;;;;;;5043095;28;20096;-78
2022/08/11 14:09:27;;;;;;;2.97;1.40;;;;;;;;;;5052939;28;20048;-78
2022/08/11 14:14:43;;;;;;;2.70;1.40;;;;;;;;;;5052368;28;20068;-77
2022/08/11 14:17:09;;;;;;;3.80;1.20;;;;;;;;;;5052249;28;20124;-77
2022/08/11 14:19:38;;;;;;;5.82;1.35;;;;;;;;;;5051911;28;20032;-77
2022/08/11 14:22:08;;;;;;;4.47;1.67;;;;;;;;;;5051648;28;20040;-78
2022/08/11 14:24:38;;;;;;;2.80;1.58;;;;;;;;;;5053943;28;20445;-77
2022/08/11 14:27:10;;;;;;;3.35;1.67;;;;;;;;;;5051817;28;20064;-77
2022/08/11 14:29:37;;;;;;;2.72;1.25;;;;;;;;;;5057055;28;20486;-77
2022/08/11 14:32:06;;;;;;;3.33;1.20;;;;;;;;;;5050207;28;20052;-77
2022/08/11 14:34:33;;;;;;;3.63;1.50;;;;;;;;;;5031644;28;20075;-77
2022/08/11 14:37:12;;;;;;;2.88;1.20;;;;;;;;;;5044091;28;20060;-77
2022/08/11 14:39:40;;;;;;;3.60;1.20;;;;;;;;;;5043153;28;20041;-77
2022/08/11 14:47:41;;;;;;;2.58;1.20;;;;;;;;;;5052643;28;20060;-77
2022/08/11 14:50:12;;;;;;;3.10;1.42;;;;;;;;;;5042871;28;20037;-77
2022/08/11 14:52:57;;;;;;;2.20;1.30;;;;;;;;;;5051384;28;20044;-77
2022/08/11 14:58:10;;;;;;;5.20;1.30;;;;;;;;;;5050910;28;20056;-78
2022/08/11 15:00:37;;;;;;;2.38;1.10;;;;;;;;;;5047534;28;20464;-77
2022/08/11 15:03:10;;;;;;;6.38;1.40;;;;;;;;;;5049455;28;20055;-77
2022/08/11 15:05:53;;;;;;;3.20;1.30;;;;;;;;;;5034615;28;20080;-77
2022/08/11 15:08:53;;;;;;;3.60;1.20;;;;;;;;;;5034633;28;20436;-77
2022/08/11 15:12:07;;;;;;;2.65;1.15;;;;;;;;;;5067472;28;20045;-77
2022/08/11 15:13:52;;;;;;;3.05;1.25;;;;;;;;;;5039141;28;20037;-77
2022/08/11 15:19:04;;;;;;;3.70;1.20;;;;;;;;;;5048870;28;20425;-77
2022/08/11 15:24:21;;;;;;;4.50;1.30;;;;;;;;;;5051027;28;20048;-77
2022/08/11 15:37:39;;;;;;;2.80;1.45;;;;;;;;;;5050481;28;20412;-78
2022/08/11 15:46:01;;;;;;;3.13;1.20;;;;;;;;;;5049335;28;20486;-78
2022/08/11 15:48:38;;;;;;;4.90;1.30;;;;;;;;;;5050650;28;20045;-77
2022/08/11 15:51:09;;;;;;;3.65;1.15;;;;;;;;;;5052700;28;20059;-78
2022/08/11 15:53:45;;;;;;;2.38;1.27;;;;;;;;;;5045390;28;20048;-78
2022/08/11 15:56:11;;;;;;;2.05;1.20;;;;;;;;;;5048507;28;20090;-78
2022/08/11 16:04:18;;;;;;;4.60;1.20;;;;;;;;;;5038542;28;20045;-78
2022/08/11 16:06:50;;;;;;;3.00;1.20;;;;;;;;;;5040729;28;20076;-77
2022/08/11 16:09:34;;;;;;;3.30;1.30;;;;;;;;;;5033043;28;20064;-78
2022/08/11 16:12:06;;;;;;;4.35;1.38;;;;;;;;;;5039538;28;20044;-78
2022/08/11 16:17:20;;;;;;;3.97;1.27;;;;;;;;;;5043493;28;20528;-77
2022/08/11 16:19:49;;;;;;;2.67;1.40;;;;;;;;;;5043238;28;20521;-77
2022/08/11 16:22:20;;;;;;;3.67;1.40;;;;;;;;;;5050612;28;20037;-77
2022/08/11 16:24:47;;;;;;;4.18;1.60;;;;;;;;;;5050231;28;20043;-78
2022/08/11 16:27:13;;;;;;;4.53;1.38;;;;;;;;;;5050423;28;20044;-77
2022/08/11 16:29:45;;;;;;;3.78;1.30;;;;;;;;;;5032219;28;20059;-76
2022/08/11 16:32:16;;;;;;;3.35;1.35;;;;;;;;;;5060458;28;20041;-76
2022/08/11 16:40:16;;;;;;;4.05;1.40;;;;;;;;;;5070140;28;20080;-77
2022/08/11 16:48:15;;;;;;;3.35;1.30;;;;;;;;;;5052476;28;20047;-77
2022/08/11 16:50:42;;;;;;;4.78;1.42;;;;;;;;;;5044516;28;20033;-77
2022/08/11 16:53:08;;;;;;;5.82;1.30;;;;;;;;;;5050170;28;20402;-77
2022/08/11 16:55:34;;;;;;;5.38;1.40;;;;;;;;;;5019938;28;20070;-77
2022/08/11 17:00:47;;;;;;;3.65;1.50;;;;;;;;;;5048551;28;20045;-77
2022/08/11 17:14:28;;;;;;;4.15;1.92;;;;;;;;;;5051414;28;20395;-78
2022/08/11 17:16:55;;;;;;;5.85;1.70;;;;;;;;;;5053465;28;20036;-78
2022/08/11 17:19:23;;;;;;;4.80;1.70;;;;;;;;;;5052626;28;20036;-78
2022/08/11 17:24:37;;;;;;;5.38;1.30;;;;;;;;;;5052956;28;20041;-78
2022/08/11 17:27:06;;;;;;;4.78;1.58;;;;;;;;;;5031000;28;20041;-78
2022/08/11 17:29:32;;;;;;;4.90;1.55;;;;;;;;;;5049834;28;20558;-78
2022/08/11 17:37:36;;;;;;;4.15;1.50;;;;;;;;;;5049964;28;20514;-77
2022/08/11 17:40:06;;;;;;;5.38;1.65;;;;;;;;;;5049583;28;20037;-77
2022/08/11 17:50:49;;;;;;;5.20;1.45;;;;;;;;;;5049167;28;20132;-77
2022/08/11 18:01:34;;;;;;;3.28;1.70;;;;;;;;;;5044342;28;20045;-77
2022/08/11 18:04:01;;;;;;;4.55;1.80;;;;;;;;;;5041975;28;20045;-77
2022/08/11 18:06:29;;;;;;;5.78;1.80;;;;;;;;;;5034209;28;20077;-77
